Latest Weather Observations for Fort Denison

IDN60901

Issued at 2:01 am EST Tuesday 23 April 2019 (issued every 10 minutes, with the page automatically refreshed every 10 minutes)

About weather observations | Map of Sydney area stations | Latest observations for Sydney area | Other Formats
Station Details ID: 066022 Name: FORT DENISON Lat: -33.86 Lon: 151.23 Height: 5.0 m
Data from the previous 72 hours. | See also: Recent months for locations in New South Wales
Date/Time
EST
Temp
°C
App
Temp
°C
Dew
Point
°C
Rel
Hum
%
Delta-T
°C
Wind Press
QNH
hPa
Press
MSL
hPa
Rain since
9am
mm
Dir  Spd
km/h
Gust
km/h
Spd
kts
Gust
kts
23/02:00am - - - - - WNW 6 7 3 4 - - -
23/01:30am - - - - - WNW 2 4 1 2 - - -
23/01:00am - - - - - N 4 6 2 3 - - -
23/12:30am - - - - - ENE 7 11 4 6 - - -
23/12:00am - - - - - NE 6 7 3 4 - - -
 
Date/Time
EST
Temp
°C
App
Temp
°C
Dew
Point
°C
Rel
Hum
%
Delta-T
°C
Wind Press
QNH
hPa
Press
MSL
hPa
Rain since
9am
mm
Dir  Spd
km/h
Gust
km/h
Spd
kts
Gust
kts
22/11:30pm - - - - - ESE 2 4 1 2 - - -
22/11:00pm - - - - - ENE 4 7 2 4 - - -
22/10:30pm - - - - - NE 2 6 1 3 - - -
22/10:00pm - - - - - NNE 4 6 2 3 - - -
22/09:30pm - - - - - NE 6 7 3 4 - - -
22/09:00pm - - - - - NE 7 9 4 5 - - -
22/08:30pm - - - - - ENE 7 11 4 6 - - -
22/08:00pm - - - - - NE 6 9 3 5 - - -
22/07:30pm - - - - - NE 6 9 3 5 - - -
22/07:00pm - - - - - NE 6 13 3 7 - - -
22/06:30pm - - - - - NE 9 17 5 9 - - -
22/06:00pm - - - - - NE 13 24 7 13 - - -
22/05:30pm - - - - - NE 13 24 7 13 - - -
22/05:00pm - - - - - NE 19 32 10 17 - - -
22/04:30pm - - - - - NE 19 28 10 15 - - -
22/04:00pm - - - - - ENE 20 30 11 16 - - -
22/03:30pm - - - - - ENE 24 32 13 17 - - -
22/03:00pm - - - - - ENE 20 32 11 17 - - -
22/02:30pm - - - - - ENE 19 26 10 14 - - -
22/02:00pm - - - - - E 24 32 13 17 - - -
22/01:30pm - - - - - ENE 22 28 12 15 - - -
22/01:00pm - - - - - E 22 26 12 14 - - -
22/12:30pm - - - - - E 24 28 13 15 - - -
22/12:00pm - - - - - ENE 19 26 10 14 - - -
22/11:30am - - - - - ENE 20 24 11 13 - - -
22/11:00am - - - - - ENE 15 19 8 10 - - -
22/10:30am - - - - - ENE 15 20 8 11 - - -
22/10:00am - - - - - NE 19 24 10 13 - - -
22/09:30am - - - - - ENE 13 20 7 11 - - -
22/09:00am - - - - - CALM 0 4 0 2 - - -
22/08:30am - - - - - W 6 7 3 4 - - -
22/08:00am - - - - - WNW 7 9 4 5 - - -
22/07:30am - - - - - WNW 13 15 7 8 - - -
22/07:00am - - - - - NW 7 11 4 6 - - -
22/06:30am - - - - - WNW 7 9 4 5 - - -
22/06:00am - - - - - WNW 6 6 3 3 - - -
22/05:30am - - - - - NW 2 7 1 4 - - -
22/05:00am - - - - - NNE 11 15 6 8 - - -
22/04:30am - - - - - NNE 7 9 4 5 - - -
22/04:00am - - - - - NE 6 11 3 6 - - -
22/03:30am - - - - - NNE 2 6 1 3 - - -
22/03:00am - - - - - CALM 0 4 0 2 - - -
22/02:30am - - - - - NW 2 4 1 2 - - -
22/02:00am - - - - - WSW 2 4 1 2 - - -
22/01:30am - - - - - N 2 4 1 2 - - -
22/01:00am - - - - - N 4 7 2 4 - - -
22/12:30am - - - - - N 6 7 3 4 - - -
22/12:00am - - - - - N 6 11 3 6 - - -
 
Date/Time
EST
Temp
°C
App
Temp
°C
Dew
Point
°C
Rel
Hum
%
Delta-T
°C
Wind Press
QNH
hPa
Press
MSL
hPa
Rain since
9am
mm
Dir  Spd
km/h
Gust
km/h
Spd
kts
Gust
kts
21/11:30pm - - - - - NNE 9 13 5 7 - - -
21/11:00pm - - - - - NNE 11 17 6 9 - - -
21/10:30pm - - - - - NNE 11 15 6 8 - - -
21/10:00pm - - - - - NNE 7 13 4 7 - - -
21/09:30pm - - - - - NE 7 11 4 6 - - -
21/09:00pm - - - - - NNE 6 9 3 5 - - -
21/08:30pm - - - - - N 6 9 3 5 - - -
21/08:00pm - - - - - NNE 9 13 5 7 - - -
21/07:30pm - - - - - NE 11 20 6 11 - - -
21/07:00pm - - - - - NE 9 17 5 9 - - -
21/06:30pm - - - - - NE 9 19 5 10 - - -
21/06:00pm - - - - - NE 11 19 6 10 - - -
21/05:30pm - - - - - NE 15 22 8 12 - - -
21/05:00pm - - - - - NE 11 17 6 9 - - -
21/04:30pm - - - - - ENE 19 24 10 13 - - -
21/04:00pm - - - - - ENE 22 30 12 16 - - -
21/03:30pm - - - - - ENE 22 28 12 15 - - -
21/03:00pm - - - - - ENE 20 28 11 15 - - -
21/02:30pm - - - - - ENE 17 24 9 13 - - -
21/02:00pm - - - - - ENE 19 24 10 13 - - -
21/01:30pm - - - - - E 22 30 12 16 - - -
21/01:00pm - - - - - E 22 28 12 15 - - -
21/12:30pm - - - - - E 24 30 13 16 - - -
21/12:00pm - - - - - E 24 30 13 16 - - -
21/11:30am - - - - - ENE 15 22 8 12 - - -
21/11:00am - - - - - ENE 15 24 8 13 - - -
21/10:30am - - - - - E 17 22 9 12 - - -
21/10:00am - - - - - SSW 2 6 1 3 - - -
21/09:30am - - - - - ESE 6 7 3 4 - - -
21/09:00am - - - - - NW 4 7 2 4 - - -
21/08:30am - - - - - WNW 7 9 4 5 - - -
21/08:00am - - - - - W 6 7 3 4 - - -
21/07:30am - - - - - W 4 4 2 2 - - -
21/07:00am - - - - - NW 4 7 2 4 - - -
21/06:30am - - - - - NNW 4 4 2 2 - - -
21/06:00am - - - - - NNW 2 4 1 2 - - -
21/05:30am - - - - - NW 4 6 2 3 - - -
21/05:00am - - - - - WNW 7 9 4 5 - - -
21/04:30am - - - - - WNW 9 11 5 6 - - -
21/04:00am - - - - - WNW 11 11 6 6 - - -
21/03:30am - - - - - NW 4 6 2 3 - - -
21/03:00am - - - - - W 2 4 1 2 - - -
21/02:30am - - - - - CALM 0 2 0 1 - - -
21/02:00am - - - - - W 4 6 2 3 - - -
21/01:30am - - - - - WNW 9 11 5 6 - - -
21/01:00am - - - - - W 13 15 7 8 - - -
21/12:30am - - - - - N 4 7 2 4 - - -
21/12:00am - - - - - NNE 7 11 4 6 - - -
 
Date/Time
EST
Temp
°C
App
Temp
°C
Dew
Point
°C
Rel
Hum
%
Delta-T
°C
Wind Press
QNH
hPa
Press
MSL
hPa
Rain since
9am
mm
Dir  Spd
km/h
Gust
km/h
Spd
kts
Gust
kts
20/11:30pm - - - - - ENE 15 26 8 14 - - -
20/11:00pm - - - - - NE 11 19 6 10 - - -
20/10:30pm - - - - - NE 11 19 6 10 - - -
20/10:00pm - - - - - NE 15 20 8 11 - - -
20/09:30pm - - - - - ENE 13 19 7 10 - - -
20/09:00pm - - - - - ENE 13 19 7 10 - - -
20/08:30pm - - - - - NE 9 17 5 9 - - -
20/08:00pm - - - - - ENE 11 17 6 9 - - -
20/07:30pm - - - - - ENE 11 15 6 8 - - -
20/07:00pm - - - - - ENE 9 15 5 8 - - -
20/06:30pm - - - - - ENE 13 20 7 11 - - -
20/06:00pm - - - - - ENE 13 19 7 10 - - -
20/05:30pm - - - - - ENE 13 15 7 8 - - -
20/05:00pm - - - - - ENE 15 17 8 9 - - -
20/04:30pm - - - - - E 15 20 8 11 - - -
20/04:00pm - - - - - E 15 19 8 10 - - -
20/03:30pm - - - - - E 13 15 7 8 - - -
20/03:00pm - - - - - ESE 13 17 7 9 - - -
20/02:30pm - - - - - ESE 11 15 6 8 - - -
20/02:00pm - - - - - ESE 13 15 7 8 - - -
20/01:30pm - - - - - ESE 15 19 8 10 - - -
20/01:00pm - - - - - ESE 11 15 6 8 - - -
20/12:30pm - - - - - ESE 13 17 7 9 - - -
20/12:00pm - - - - - E 9 13 5 7 - - -
20/11:30am - - - - - ENE 2 6 1 3 - - -
20/11:00am - - - - - NW 4 6 2 3 - - -
20/10:30am - - - - - WNW 9 11 5 6 - - -
20/10:00am - - - - - WNW 9 11 5 6 - - -
20/09:30am - - - - - WNW 9 11 5 6 - - -
20/09:00am - - - - - WNW 9 11 5 6 - - -
20/08:30am - - - - - WNW 11 15 6 8 - - -
20/08:00am - - - - - WNW 13 15 7 8 - - -
20/07:30am - - - - - WNW 11 13 6 7 - - -
20/07:00am - - - - - WNW 9 11 5 6 - - -
20/06:30am - - - - - WNW 11 13 6 7 - - -
20/06:00am - - - - - WNW 11 13 6 7 - - -
20/05:30am - - - - - WNW 9 13 5 7 - - -
20/05:00am - - - - - W 13 17 7 9 - - -
20/04:30am - - - - - WNW 15 17 8 9 - - -
20/04:00am - - - - - WNW 15 17 8 9 - - -
20/03:30am - - - - - WNW 11 11 6 6 - - -
20/03:00am - - - - - WNW 11 11 6 6 - - -
20/02:30am - - - - - W 11 13 6 7 - - -

Latest Capital City Observations: Canberra | Sydney | Melbourne | Brisbane | Adelaide | Perth | Hobart | Darwin

Other formats

Comma delimited format used in spreadsheet applications
http://www.bom.gov.au/fwo/IDN60901/IDN60901.94769.axf

JavaScript Object Notation format (JSON) in row-major order
http://www.bom.gov.au/fwo/IDN60901/IDN60901.94769.json

Data quality

Most of these data are generated automatically and are frequently updated. Quality checks on data are not normally performed. It is possible for incorrect values to appear. Refer to information at About Latest Weather Observations and please check the disclaimer before using these data.